CYYZ/YYZ METAR and TAF weather

Enter ICAO airport designator
Station Type Date Time Source
CYYZ METAR 2017/10/19 07:00 UTC NOAA

CYYZ 190700Z 22011G16KT 15SM SKC 13/09 A3005 RMK SLP177


Station Type Date Time Source
CYYZ Decoded METAR 2017/10/19 07:00 UTC NOAA

Toronto Pearson Int'L. Ont., Canada (CYYZ) 43-40N 079-38W 173M
Oct 19, 2017 - 03:00 AM EDT / 2017.10.19 0700 UTC
Wind: from the SW (220 degrees) at 13 MPH (11 KT) gusting to 18 MPH (16 KT):0
Visibility: 15 mile(s):0
Sky conditions: clear
Temperature: 55 F (13 C)
Dew Point: 48 F (9 C)
Relative Humidity: 76%
Pressure (altimeter): 30.05 in. Hg (1017 hPa)
ob: CYYZ 190700Z 22011G16KT 15SM SKC 13/09 A3005 RMK SLP177
cycle: 7

Station Type Date Time Source
CYYZ TAF 2017/10/19 06:42 UTC NOAA

TAF CYYZ 190539Z 1906/2012 22005KT WS005/23030KT P6SM SKC
FM191400 25012G22KT P6SM FEW020 SCT180
BECMG 1914/1916 26020G30KT
BECMG 1921/1923 28015G25KT
FM200200 28010KT P6SM SKC
FM201000 30008KT P6SM SKC
RMK NXT FCST BY 190900Z


Example: see airport list